createdAt,value
2022-09-07T00:01:09.487Z,2.72
2022-09-07T00:03:37.591Z,2.85
2022-09-07T00:06:11.018Z,2.50
2022-09-07T00:08:40.024Z,2.50
2022-09-07T00:11:11.651Z,2.60
2022-09-07T00:13:40.934Z,2.90
2022-09-07T00:16:12.255Z,2.85
2022-09-07T00:18:45.214Z,2.75
2022-09-07T00:21:16.220Z,2.85
2022-09-07T00:23:45.014Z,2.65
2022-09-07T00:26:15.912Z,2.90
2022-09-07T00:28:44.530Z,2.80
2022-09-07T00:31:15.639Z,2.70
2022-09-07T00:33:44.270Z,2.80
2022-09-07T00:36:12.481Z,2.70
2022-09-07T00:38:40.753Z,2.65
2022-09-07T00:41:09.699Z,2.83
2022-09-07T00:43:39.852Z,2.70
2022-09-07T00:46:13.493Z,2.75
2022-09-07T00:48:48.325Z,2.95
2022-09-07T00:51:21.960Z,2.67
2022-09-07T00:53:54.305Z,3.20
2022-09-07T00:56:24.939Z,2.63
2022-09-07T00:58:53.994Z,2.80
2022-09-07T01:01:22.782Z,3.20
2022-09-07T01:03:53.990Z,3.05
2022-09-07T01:06:25.730Z,3.42
2022-09-07T01:08:56.151Z,2.90
2022-09-07T01:11:24.748Z,3.08
2022-09-07T01:13:54.788Z,2.95
2022-09-07T01:16:35.855Z,2.92
2022-09-07T01:19:21.708Z,2.65
2022-09-07T01:21:59.669Z,2.95
2022-09-07T01:24:42.712Z,3.10
2022-09-07T01:27:51.246Z,3.20
2022-09-07T01:30:21.044Z,2.67
2022-09-07T01:33:04.945Z,2.63
2022-09-07T01:35:40.969Z,2.80
2022-09-07T01:38:16.165Z,3.40
2022-09-07T01:40:50.208Z,3.28
2022-09-07T01:43:29.284Z,2.90
2022-09-07T01:45:59.426Z,3.20
2022-09-07T01:48:28.147Z,3.20
2022-09-07T01:51:01.815Z,2.95
2022-09-07T01:53:34.672Z,3.22
2022-09-07T01:56:07.451Z,3.30
2022-09-07T01:58:40.610Z,2.95
2022-09-07T02:01:12.483Z,3.25
2022-09-07T02:03:44.036Z,3.28
2022-09-07T02:06:18.174Z,3.45
2022-09-07T02:08:54.156Z,3.10
2022-09-07T02:11:26.507Z,3.10
2022-09-07T02:14:00.165Z,2.90
2022-09-07T02:16:29.711Z,2.72
2022-09-07T02:19:00.055Z,2.90
2022-09-07T02:21:34.584Z,3.40
2022-09-07T02:24:07.272Z,2.85
2022-09-07T02:26:37.633Z,4.95
2022-09-07T02:29:07.434Z,3.40
2022-09-07T02:31:35.667Z,3.33
2022-09-07T02:34:04.205Z,3.30
2022-09-07T02:36:37.535Z,3.00
2022-09-07T02:39:05.764Z,3.55
2022-09-07T02:41:35.989Z,3.38
2022-09-07T02:44:08.329Z,3.63
2022-09-07T02:47:03.018Z,3.20
2022-09-07T02:49:42.918Z,3.20
2022-09-07T02:52:20.978Z,3.20
2022-09-07T02:55:02.243Z,3.63
2022-09-07T02:57:45.770Z,4.55
2022-09-07T03:00:20.733Z,3.20
2022-09-07T03:02:58.395Z,4.00
2022-09-07T03:05:34.057Z,3.42
2022-09-07T03:08:05.192Z,3.20
2022-09-07T03:10:34.097Z,3.65
2022-09-07T03:13:02.193Z,3.70
2022-09-07T03:15:32.050Z,3.65
2022-09-07T03:18:00.357Z,3.53
2022-09-07T03:20:28.462Z,3.55
2022-09-07T03:22:56.548Z,3.40
2022-09-07T03:25:25.256Z,3.85
2022-09-07T03:27:53.365Z,3.70
2022-09-07T03:30:21.636Z,3.30
2022-09-07T03:32:51.057Z,3.38
2022-09-07T03:35:19.447Z,3.50
2022-09-07T03:37:47.524Z,3.40
2022-09-07T03:40:16.704Z,3.78
2022-09-07T03:42:44.811Z,3.72
2022-09-07T03:45:12.940Z,3.75
2022-09-07T03:47:41.373Z,3.45
2022-09-07T03:50:11.144Z,3.50
2022-09-07T03:52:39.631Z,3.70
2022-09-07T03:55:08.508Z,4.15
2022-09-07T03:57:36.708Z,3.92
2022-09-07T04:00:06.431Z,3.78
2022-09-07T04:02:40.830Z,3.30
2022-09-07T04:05:11.549Z,3.58
2022-09-07T04:07:39.839Z,3.88
2022-09-07T04:10:08.803Z,3.67
2022-09-07T04:12:36.850Z,3.97
2022-09-07T04:15:05.494Z,3.97
2022-09-07T04:17:33.564Z,3.80
2022-09-07T04:20:01.671Z,3.60
2022-09-07T04:22:31.120Z,3.33
2022-09-07T04:24:59.224Z,3.85
2022-09-07T04:27:27.304Z,4.03
2022-09-07T04:29:55.344Z,3.90
2022-09-07T04:32:23.396Z,3.97
2022-09-07T04:34:51.948Z,3.85
2022-09-07T04:37:20.075Z,3.85
2022-09-07T04:39:49.574Z,4.05
2022-09-07T04:42:17.685Z,4.13
2022-09-07T04:44:45.782Z,4.00
2022-09-07T04:47:13.840Z,4.50
2022-09-07T04:49:42.050Z,3.80
2022-09-07T04:52:10.184Z,4.25
2022-09-07T04:54:38.197Z,4.07
2022-09-07T04:57:07.703Z,4.22
2022-09-07T04:59:35.768Z,4.30
2022-09-07T05:02:03.942Z,5.72
2022-09-07T05:04:32.069Z,4.53
2022-09-07T05:07:00.130Z,4.15
2022-09-07T05:09:28.440Z,4.20
2022-09-07T05:11:56.548Z,4.55
2022-09-07T05:14:25.992Z,4.90
2022-09-07T05:16:54.062Z,5.03
2022-09-07T05:19:22.224Z,4.30
2022-09-07T05:21:50.539Z,4.85
2022-09-07T05:24:18.768Z,4.78
2022-09-07T05:26:46.876Z,4.90
2022-09-07T05:32:04.776Z,4.57
2022-09-07T05:34:33.246Z,4.50
2022-09-07T05:37:02.403Z,4.97
2022-09-07T05:39:30.958Z,4.55
2022-09-07T05:41:59.075Z,5.18
2022-09-07T05:47:12.140Z,5.00
2022-09-07T05:49:40.292Z,4.60
2022-09-07T05:52:08.458Z,5.07
2022-09-07T05:54:36.557Z,4.90
2022-09-07T05:57:04.900Z,4.82
2022-09-07T05:59:33.028Z,5.05
2022-09-07T06:02:01.588Z,4.82
2022-09-07T06:04:31.183Z,4.63
2022-09-07T06:12:36.204Z,4.70
2022-09-07T06:15:05.490Z,4.70
2022-09-07T06:17:33.567Z,4.80
2022-09-07T06:20:03.767Z,4.38
2022-09-07T06:22:31.912Z,4.85
2022-09-07T06:25:00.236Z,4.65
2022-09-07T06:27:28.337Z,4.88
2022-09-07T06:29:56.474Z,4.60
2022-09-07T06:35:14.578Z,5.25
2022-09-07T06:37:42.797Z,5.00
2022-09-07T06:40:12.626Z,5.32
2022-09-07T06:42:42.428Z,5.63
2022-09-07T06:45:12.825Z,5.85
2022-09-07T06:47:41.347Z,6.30
2022-09-07T06:50:10.688Z,6.72
2022-09-07T06:55:29.098Z,6.95
2022-09-07T06:57:57.241Z,6.55
2022-09-07T07:00:25.439Z,6.65
2022-09-07T07:03:00.382Z,6.80
2022-09-07T07:05:29.290Z,7.75
2022-09-07T07:07:58.748Z,7.25
2022-09-07T07:10:26.846Z,7.60
2022-09-07T07:12:58.412Z,7.82
2022-09-07T07:15:28.425Z,7.35
2022-09-07T07:18:05.101Z,7.72
2022-09-07T07:20:37.637Z,8.07
2022-09-07T07:23:07.458Z,8.48
2022-09-07T07:25:36.189Z,9.13
2022-09-07T07:30:56.586Z,9.48
2022-09-07T07:33:25.172Z,9.70
2022-09-07T07:35:53.216Z,8.95
2022-09-07T07:44:00.569Z,8.05
2022-09-07T07:46:32.250Z,8.55
2022-09-07T07:49:00.399Z,10.07
2022-09-07T07:51:28.829Z,8.70
2022-09-07T07:53:58.678Z,7.93
2022-09-07T07:56:27.058Z,7.78
2022-09-07T07:58:55.091Z,8.18
2022-09-07T08:01:23.126Z,8.68
2022-09-07T08:03:52.800Z,7.63
2022-09-07T08:06:22.161Z,7.72
2022-09-07T08:08:50.236Z,8.05
2022-09-07T08:11:21.937Z,8.50
2022-09-07T08:13:51.982Z,8.95
2022-09-07T08:16:20.264Z,8.05
2022-09-07T08:18:49.168Z,8.50
2022-09-07T08:21:17.646Z,7.97
2022-09-07T08:23:45.913Z,8.50
2022-09-07T08:26:14.082Z,8.27
2022-09-07T08:28:45.492Z,8.65
2022-09-07T08:31:15.651Z,7.97
2022-09-07T08:33:43.903Z,8.02
2022-09-07T08:36:13.706Z,8.45
2022-09-07T08:38:42.533Z,8.05
2022-09-07T08:41:39.217Z,7.68
2022-09-07T08:44:14.885Z,8.25
2022-09-07T08:46:46.354Z,9.13
2022-09-07T08:49:20.519Z,8.85
2022-09-07T08:51:53.599Z,8.27
2022-09-07T08:54:21.849Z,8.27
2022-09-07T08:59:48.653Z,8.73
2022-09-07T09:02:41.983Z,8.73
2022-09-07T09:05:18.865Z,9.00
2022-09-07T09:07:55.537Z,8.85
2022-09-07T09:10:35.635Z,9.30
2022-09-07T09:13:15.779Z,9.38
2022-09-07T09:15:59.384Z,8.88
2022-09-07T09:18:49.253Z,8.80
2022-09-07T09:21:18.838Z,9.38
2022-09-07T09:23:49.907Z,10.05
2022-09-07T09:26:23.474Z,9.13
2022-09-07T09:28:51.714Z,9.68
2022-09-07T09:31:23.118Z,9.60
2022-09-07T09:34:10.333Z,9.00
2022-09-07T09:36:43.963Z,8.27
2022-09-07T09:39:30.505Z,7.95
2022-09-07T09:42:05.063Z,8.90
2022-09-07T09:44:37.560Z,7.95
2022-09-07T09:49:57.726Z,8.15
2022-09-07T09:52:31.268Z,7.78
2022-09-07T09:55:23.684Z,8.40
2022-09-07T10:04:01.423Z,7.53
2022-09-07T10:06:33.032Z,7.03
2022-09-07T10:09:03.174Z,7.00
2022-09-07T10:14:32.840Z,7.45
2022-09-07T10:17:11.380Z,7.20
2022-09-07T10:19:42.608Z,7.03
2022-09-07T10:22:33.648Z,7.65
2022-09-07T10:25:02.827Z,7.30
2022-09-07T10:27:34.367Z,7.70
2022-09-07T10:30:06.699Z,7.50
2022-09-07T10:32:55.286Z,7.57
2022-09-07T10:35:29.684Z,7.50
2022-09-07T10:38:12.020Z,7.28
2022-09-07T10:40:45.320Z,8.15
2022-09-07T10:43:21.698Z,7.70
2022-09-07T10:46:06.116Z,7.72
2022-09-07T10:48:44.906Z,8.45
2022-09-07T10:51:18.678Z,8.40
2022-09-07T10:57:00.367Z,9.02
2022-09-07T11:03:25.055Z,8.40
2022-09-07T11:05:50.162Z,8.45
2022-09-07T11:09:15.110Z,8.57
2022-09-07T11:14:21.969Z,9.15
2022-09-07T11:16:54.617Z,8.52
2022-09-07T11:19:37.738Z,8.88
2022-09-07T11:22:16.947Z,9.85
2022-09-07T11:27:45.564Z,8.43
2022-09-07T11:30:25.691Z,8.38
2022-09-07T11:33:02.673Z,9.10
2022-09-07T11:35:41.048Z,8.77
2022-09-07T11:38:19.993Z,8.40
2022-09-07T11:41:00.593Z,8.45
2022-09-07T11:43:31.698Z,9.00
2022-09-07T11:46:04.941Z,8.73
2022-09-07T11:48:37.502Z,8.27
2022-09-07T11:51:11.514Z,7.80
2022-09-07T11:53:44.856Z,8.43
2022-09-07T11:56:18.754Z,7.93
2022-09-07T11:59:12.837Z,7.75
2022-09-07T12:01:52.626Z,8.02
2022-09-07T12:04:48.345Z,8.45
2022-09-07T12:07:46.695Z,8.20
2022-09-07T12:10:50.702Z,7.88
2022-09-07T12:13:41.026Z,7.82
2022-09-07T12:16:17.072Z,7.70
2022-09-07T12:19:12.274Z,6.88
2022-09-07T12:21:43.313Z,7.32
2022-09-07T12:24:39.094Z,6.43
2022-09-07T12:27:09.924Z,6.63
2022-09-07T12:29:45.251Z,6.90
2022-09-07T12:35:01.912Z,6.00
2022-09-07T12:37:39.448Z,7.15
2022-09-07T12:40:45.187Z,6.55
2022-09-07T12:44:02.015Z,7.13
2022-09-07T12:46:47.992Z,6.65
2022-09-07T12:49:41.074Z,7.03
2022-09-07T12:52:45.609Z,6.32
2022-09-07T12:55:29.335Z,6.10
2022-09-07T12:58:10.453Z,6.57
2022-09-07T13:00:52.755Z,6.18
2022-09-07T13:03:52.426Z,6.32
2022-09-07T13:09:32.224Z,7.43
2022-09-07T13:12:04.616Z,7.40
2022-09-07T13:14:36.718Z,7.10
2022-09-07T13:17:43.303Z,7.18
2022-09-07T13:20:30.441Z,7.20
2022-09-07T13:23:20.718Z,7.30
2022-09-07T13:26:00.448Z,7.07
2022-09-07T13:28:32.943Z,7.70
2022-09-07T13:31:22.348Z,7.30
2022-09-07T13:33:51.381Z,7.15
2022-09-07T13:36:28.996Z,7.25
2022-09-07T13:38:57.459Z,7.43
2022-09-07T13:41:30.245Z,7.95
2022-09-07T13:44:01.775Z,7.57
2022-09-07T13:46:41.904Z,7.93
2022-09-07T13:49:28.866Z,8.48
2022-09-07T13:52:03.496Z,7.97
2022-09-07T13:55:00.782Z,8.35
2022-09-07T13:57:31.639Z,8.20
2022-09-07T14:00:00.150Z,7.60
2022-09-07T14:02:33.119Z,8.48
2022-09-07T14:05:02.842Z,9.32
2022-09-07T14:07:32.402Z,8.82
2022-09-07T14:10:13.144Z,9.10
2022-09-07T14:12:46.062Z,8.18
2022-09-07T14:15:23.504Z,8.95
2022-09-07T14:18:03.234Z,9.10
2022-09-07T14:20:32.381Z,9.98
2022-09-07T14:23:01.929Z,8.80
2022-09-07T14:25:30.156Z,9.15
2022-09-07T14:28:00.305Z,8.80
2022-09-07T14:30:31.930Z,8.40
2022-09-07T14:33:03.510Z,9.20
2022-09-07T14:35:34.537Z,8.93
2022-09-07T14:38:12.458Z,9.68
2022-09-07T14:40:40.574Z,8.82
2022-09-07T14:43:28.123Z,9.45
2022-09-07T14:46:10.181Z,9.82
2022-09-07T14:48:40.083Z,8.48
2022-09-07T14:51:29.376Z,8.75
2022-09-07T14:53:59.722Z,8.35
2022-09-07T14:56:32.645Z,8.02
2022-09-07T14:59:00.841Z,8.70
2022-09-07T15:01:37.903Z,7.93
2022-09-07T15:04:18.808Z,8.63
2022-09-07T15:07:02.905Z,8.27
2022-09-07T15:09:37.770Z,9.23
2022-09-07T15:12:19.018Z,9.20
2022-09-07T15:14:48.277Z,9.35
2022-09-07T15:20:40.831Z,8.52
2022-09-07T15:23:11.999Z,9.77
2022-09-07T15:25:44.371Z,8.85
2022-09-07T15:34:00.555Z,9.77
2022-09-07T15:36:28.887Z,8.80
2022-09-07T15:39:00.724Z,9.07
2022-09-07T15:41:30.432Z,9.00
2022-09-07T15:43:58.895Z,8.85
2022-09-07T15:46:27.127Z,8.77
2022-09-07T15:48:56.821Z,8.70
2022-09-07T15:54:14.791Z,9.00
2022-09-07T15:57:48.389Z,9.05
2022-09-07T15:59:33.443Z,8.95
2022-09-07T16:02:02.016Z,9.20
2022-09-07T16:04:30.793Z,8.93
2022-09-07T16:07:01.577Z,9.43
2022-09-07T16:09:29.851Z,8.32
2022-09-07T16:13:00.115Z,9.60
2022-09-07T16:14:47.316Z,8.82
2022-09-07T16:20:04.137Z,8.50
2022-09-07T16:25:20.229Z,8.43
2022-09-07T16:27:50.034Z,9.27
2022-09-07T16:30:18.291Z,11.30
2022-09-07T16:32:46.604Z,8.93
2022-09-07T16:35:14.857Z,8.73
2022-09-07T16:40:30.882Z,8.50
2022-09-07T16:43:00.282Z,9.13
2022-09-07T16:48:16.347Z,8.98
2022-09-07T16:51:00.322Z,8.70
2022-09-07T16:53:30.096Z,7.93
2022-09-07T16:56:01.776Z,8.77
2022-09-07T16:58:36.132Z,8.52
2022-09-07T17:01:05.102Z,8.23
2022-09-07T17:03:33.801Z,7.85
2022-09-07T17:06:02.645Z,8.00
2022-09-07T17:08:31.108Z,8.10
2022-09-07T17:11:03.614Z,8.30
2022-09-07T17:13:33.949Z,7.78
2022-09-07T17:16:05.171Z,7.78
2022-09-07T17:21:21.883Z,8.50
2022-09-07T17:23:55.203Z,7.97
2022-09-07T17:26:26.891Z,7.60
2022-09-07T17:29:00.395Z,7.50
2022-09-07T17:34:21.765Z,7.97
2022-09-07T17:36:50.125Z,7.43
2022-09-07T17:39:19.373Z,7.85
2022-09-07T17:41:48.463Z,7.38
2022-09-07T17:44:19.078Z,6.90
2022-09-07T17:46:47.092Z,8.20
2022-09-07T17:49:16.791Z,8.77
2022-09-07T17:51:45.756Z,8.00
2022-09-07T17:54:16.575Z,8.45
2022-09-07T17:56:45.406Z,8.05
2022-09-07T18:02:03.156Z,9.23
2022-09-07T18:04:31.169Z,9.63
2022-09-07T18:06:59.342Z,9.60
2022-09-07T18:09:27.475Z,9.88
2022-09-07T18:11:55.629Z,10.52
2022-09-07T18:14:23.661Z,11.18
2022-09-07T18:16:51.996Z,10.85
2022-09-07T18:19:21.476Z,10.80
2022-09-07T18:21:50.613Z,11.25
2022-09-07T18:24:22.074Z,10.98
2022-09-07T18:26:52.913Z,11.35
2022-09-07T18:29:32.828Z,11.05
2022-09-07T18:32:04.475Z,10.65
2022-09-07T18:34:34.407Z,11.95
2022-09-07T18:37:02.398Z,11.50
2022-09-07T18:39:30.954Z,12.48
2022-09-07T18:41:59.068Z,12.02
2022-09-07T18:47:22.227Z,12.15
2022-09-07T18:49:54.660Z,12.02
2022-09-07T18:55:11.307Z,12.00
2022-09-07T18:57:39.422Z,13.45
2022-09-07T19:00:09.933Z,12.50
2022-09-07T19:02:38.359Z,13.95
2022-09-07T19:07:57.342Z,13.88
2022-09-07T19:10:25.462Z,13.93
2022-09-07T19:12:53.439Z,13.38
2022-09-07T19:15:21.444Z,13.25
2022-09-07T19:17:49.814Z,13.45
2022-09-07T19:20:19.114Z,13.52
2022-09-07T19:22:47.838Z,13.73
2022-09-07T19:25:17.227Z,13.25
2022-09-07T19:27:45.180Z,13.00
2022-09-07T19:30:13.785Z,13.10
2022-09-07T19:32:41.826Z,13.07
2022-09-07T19:35:10.478Z,13.13
2022-09-07T19:37:39.813Z,12.55
2022-09-07T19:40:15.843Z,12.38
2022-09-07T19:42:46.541Z,13.43
2022-09-07T19:45:15.424Z,12.65
2022-09-07T19:47:43.363Z,14.05
2022-09-07T19:50:11.577Z,13.55
2022-09-07T19:52:40.876Z,13.02
2022-09-07T19:55:09.759Z,12.57
2022-09-07T19:57:37.726Z,13.48
2022-09-07T20:00:06.673Z,12.57
2022-09-07T20:02:39.875Z,12.43
2022-09-07T20:05:08.334Z,12.57
2022-09-07T20:07:36.323Z,13.40
2022-09-07T20:10:06.711Z,12.70
2022-09-07T20:12:35.010Z,13.48
2022-09-07T20:15:03.001Z,12.23
2022-09-07T20:17:35.104Z,13.23
2022-09-07T20:20:04.040Z,13.45
2022-09-07T20:22:32.117Z,13.32
2022-09-07T20:25:00.012Z,13.90
2022-09-07T20:27:30.511Z,13.15
2022-09-07T20:29:58.506Z,12.68
2022-09-07T20:32:28.126Z,12.75
2022-09-07T20:34:56.335Z,12.23
2022-09-07T20:37:27.164Z,13.52
2022-09-07T20:39:55.223Z,12.85
2022-09-07T20:42:23.213Z,12.80
2022-09-07T20:44:53.410Z,13.63
2022-09-07T20:47:21.402Z,13.77
2022-09-07T20:49:50.537Z,14.07
2022-09-07T20:52:18.655Z,13.32
2022-09-07T20:54:46.661Z,13.50
2022-09-07T20:57:14.578Z,13.68
2022-09-07T20:59:42.552Z,12.65
2022-09-07T21:02:11.965Z,14.27
2022-09-07T21:04:40.136Z,14.30
2022-09-07T21:07:08.088Z,14.25
2022-09-07T21:09:36.120Z,14.55
2022-09-07T21:12:04.448Z,14.10
2022-09-07T21:14:32.444Z,14.20
2022-09-07T21:17:00.397Z,14.88
2022-09-07T21:19:29.650Z,13.93
2022-09-07T21:21:57.646Z,14.15
2022-09-07T21:24:25.852Z,14.25
2022-09-07T21:26:53.764Z,13.93
2022-09-07T21:29:23.214Z,13.93
2022-09-07T21:31:53.047Z,14.45
2022-09-07T21:34:21.337Z,14.48
2022-09-07T21:36:51.078Z,14.52
2022-09-07T21:39:20.703Z,14.45
2022-09-07T21:41:48.633Z,15.10
2022-09-07T21:44:17.652Z,14.63
2022-09-07T21:46:46.131Z,14.75
2022-09-07T21:49:14.057Z,14.75
2022-09-07T21:51:42.102Z,14.10
2022-09-07T21:54:11.397Z,15.15
2022-09-07T21:56:42.101Z,14.77
2022-09-07T21:59:13.968Z,14.10
2022-09-07T22:01:41.989Z,14.57
2022-09-07T22:04:10.276Z,14.43
2022-09-07T22:06:39.782Z,14.63
2022-09-07T22:09:08.137Z,15.57
2022-09-07T22:11:37.363Z,15.23
2022-09-07T22:14:06.836Z,16.95
2022-09-07T22:16:36.008Z,15.50
2022-09-07T22:19:04.186Z,16.42
2022-09-07T22:21:32.841Z,17.80
2022-09-07T22:24:02.545Z,15.05
2022-09-07T22:26:35.087Z,16.60
2022-09-07T22:29:05.957Z,16.23
2022-09-07T22:31:36.677Z,16.05
2022-09-07T22:34:08.937Z,16.88
2022-09-07T22:36:39.966Z,16.48
2022-09-07T22:39:13.093Z,15.75
2022-09-07T22:41:43.082Z,15.88
2022-09-07T22:44:16.266Z,16.92
2022-09-07T22:46:46.803Z,16.83
2022-09-07T22:49:17.842Z,18.67
2022-09-07T22:51:46.982Z,17.95
2022-09-07T22:54:15.270Z,17.08
2022-09-07T22:56:43.728Z,17.60
2022-09-07T22:59:14.363Z,17.02
2022-09-07T23:01:43.497Z,17.17
2022-09-07T23:04:12.824Z,17.23
2022-09-07T23:06:43.084Z,17.60
2022-09-07T23:09:14.612Z,17.30
2022-09-07T23:11:43.694Z,17.98
2022-09-07T23:14:17.780Z,17.38
2022-09-07T23:16:46.869Z,17.60
2022-09-07T23:19:17.243Z,17.45
2022-09-07T23:21:46.147Z,18.38
2022-09-07T23:24:17.661Z,18.05
2022-09-07T23:26:46.543Z,17.67
2022-09-07T23:29:17.019Z,18.83
2022-09-07T23:32:00.741Z,18.75
2022-09-07T23:34:28.763Z,17.90
2022-09-07T23:36:56.837Z,17.83
2022-09-07T23:39:24.899Z,17.92
2022-09-07T23:41:53.101Z,18.40
2022-09-07T23:44:22.474Z,19.02
2022-09-07T23:46:50.627Z,19.27
2022-09-07T23:49:18.680Z,18.35
2022-09-07T23:51:46.789Z,18.40
2022-09-07T23:54:15.088Z,19.00
2022-09-07T23:56:43.157Z,20.17
2022-09-07T23:59:11.658Z,20.02
